21kousinmaru — JD2168 — position and weather

sailwx.info

Track history (hours):
 
Tides and Currents Weather Stations Pressure Air Temp Water Temp Dewpoint Dewpoint Depression Visibility Wind Speed Wind Dir Waves Ship Positions

21kousinmaru

Last reported at 2016-Aug-25 12:31 UTC. Time now 2016-Aug-25 13:11 UTC.
Position N 35°29' E 139°55'.

Length 68 m; draft 4.5 m.

MMSI: 431501835.

Date/timePositionNaut miles runAvg speedWind from/ knotsBaromVisibWave heightAir tempDewpointWater temp
2016-Aug-25 12:31N 35°29' E 139°55'2 2.0
2016-Aug-25 11:33N 35°29' E 139°53'1212.3
2016-Aug-25 10:33N 35°19' E 139°44'1212.0
2016-Aug-25 09:33N 35°06' E 139°46'  
2016-Aug-22 03:30N 34°37' E 135°01'16 4.0
2016-Aug-21 23:33N 34°23' E 135°09'0 0.0
2016-Aug-21 20:31N 34°23' E 135°09'0 0.0
2016-Aug-21 19:33N 34°23' E 135°09'0 0.0
2016-Aug-21 18:32N 34°23' E 135°09'0 0.0
2016-Aug-21 17:33N 34°23' E 135°09'0 0.0
2016-Aug-21 15:33N 34°23' E 135°09'0 0.0
2016-Aug-21 14:06N 34°23' E 135°09'0 0.0
2016-Aug-21 12:32N 34°23' E 135°09'0 0.0
2016-Aug-21 11:24N 34°23' E 135°09'0 0.0
2016-Aug-21 10:19N 34°23' E 135°09'0 0.1
2016-Aug-21 09:33N 34°23' E 135°09'0 0.0
2016-Aug-21 08:26N 34°23' E 135°09'0 0.1
2016-Aug-21 07:33N 34°23' E 135°09'0 0.0
2016-Aug-21 06:33N 34°23' E 135°09'0 0.0
2016-Aug-21 05:33N 34°23' E 135°09'0 0.0
2016-Aug-21 04:33N 34°23' E 135°09'0 0.0
2016-Aug-21 03:33N 34°23' E 135°09'0 0.0
2016-Aug-21 02:30N 34°23' E 135°09'0 0.0
2016-Aug-21 01:33N 34°23' E 135°09'0 0.0
2016-Aug-20 23:11N 34°23' E 135°09'0 0.0
2016-Aug-20 21:17N 34°23' E 135°09'0 0.0
2016-Aug-20 20:33N 34°23' E 135°09'0 0.0
2016-Aug-20 19:33N 34°23' E 135°09'0 0.0
2016-Aug-20 18:24N 34°23' E 135°09'0 0.0
2016-Aug-20 15:32N 34°23' E 135°09'0 0.0
2016-Aug-20 14:28N 34°23' E 135°09'0 0.0
2016-Aug-20 11:33N 34°23' E 135°09'0 0.0
2016-Aug-20 10:27N 34°23' E 135°09'0 0.0
2016-Aug-20 09:22N 34°23' E 135°09'0 0.0
2016-Aug-20 08:31N 34°23' E 135°09'0 0.0
2016-Aug-20 07:20N 34°23' E 135°09'0 0.0
2016-Aug-20 06:33N 34°23' E 135°09'0 0.0
2016-Aug-20 05:33N 34°23' E 135°09'0 0.0
2016-Aug-20 03:08N 34°23' E 135°09'0 0.0
2016-Aug-20 01:33N 34°23' E 135°09'0 0.0
2016-Aug-20 00:32N 34°23' E 135°09'0 0.0
2016-Aug-19 23:23N 34°23' E 135°09'0 0.0
2016-Aug-19 22:33N 34°23' E 135°09'0 0.0
2016-Aug-19 21:32N 34°23' E 135°09'0 0.0
2016-Aug-19 20:25N 34°23' E 135°09'4 3.7
2016-Aug-19 19:24N 34°26' E 135°07'1214.3
2016-Aug-19 18:33N 34°37' E 135°01'  
2016-Aug-17 08:03N 35°13' E 139°46'611.5
2016-Aug-17 07:32N 35°19' E 139°43'10 9.9
2016-Aug-17 06:34N 35°28' E 139°48'8 3.3
2016-Aug-17 04:11N 35°33' E 139°55'0 0.0
2016-Aug-17 03:33N 35°33' E 139°55'0 0.0
2016-Aug-17 02:32N 35°33' E 139°55'0 0.0
2016-Aug-17 01:33N 35°33' E 139°55'0 0.0
2016-Aug-17 00:33N 35°33' E 139°55'0 0.0
2016-Aug-16 23:33N 35°33' E 139°55'0 0.0
2016-Aug-16 22:32N 35°33' E 139°55'0 0.1
2016-Aug-16 21:28N 35°33' E 139°55'0 0.0
2016-Aug-16 20:29N 35°33' E 139°55'0 0.0
2016-Aug-16 19:31N 35°33' E 139°55'0 0.0
2016-Aug-16 18:33N 35°33' E 139°55'0 0.0
2016-Aug-16 17:33N 35°33' E 139°55'0 0.0
2016-Aug-16 16:32N 35°33' E 139°55'0 0.1
2016-Aug-16 15:34N 35°33' E 139°55'0 0.0
2016-Aug-16 14:33N 35°33' E 139°55'0 0.0
2016-Aug-16 13:31N 35°33' E 139°55'0 0.0
2016-Aug-16 12:32N 35°33' E 139°55'0 0.0
2016-Aug-16 11:32N 35°33' E 139°55'0 0.0
2016-Aug-16 10:33N 35°33' E 139°55'0 0.0
2016-Aug-16 09:32N 35°33' E 139°55'0 0.0
2016-Aug-16 08:33N 35°33' E 139°55'0 0.0
2016-Aug-16 07:33N 35°33' E 139°55'0 0.0
2016-Aug-16 06:33N 35°33' E 139°55'0 0.0
2016-Aug-16 04:33N 35°33' E 139°55'0 0.0
2016-Aug-16 03:33N 35°33' E 139°55'7 7.0
2016-Aug-16 02:33N 35°31' E 140°02'0 0.0
2016-Aug-16 01:33N 35°31' E 140°02'0 0.0
2016-Aug-16 00:33N 35°31' E 140°02'0 0.0
2016-Aug-15 23:33N 35°31' E 140°02'6 6.2
2016-Aug-15 22:33N 35°29' E 139°55'0 0.5
2016-Aug-15 21:34N 35°28' E 139°55'0 0.0
2016-Aug-15 20:33N 35°28' E 139°55'0 0.0
2016-Aug-15 19:33N 35°28' E 139°55'0 0.0
2016-Aug-15 18:33N 35°28' E 139°55'0 0.0
2016-Aug-15 17:33N 35°28' E 139°55'0 0.1
2016-Aug-15 16:34N 35°28' E 139°55'0 0.0
2016-Aug-15 15:33N 35°28' E 139°55'0 0.0
2016-Aug-15 14:34N 35°28' E 139°55'0 0.0
2016-Aug-15 13:33N 35°28' E 139°55'0 0.0
2016-Aug-15 12:33N 35°28' E 139°55'  
Track history (hours):
 
Tides and Currents Weather Stations Pressure Air Temp Water Temp Dewpoint Dewpoint Depression Visibility Wind Speed Wind Dir Waves Ship Positions

21kousinmaru

Last reported at 2016-Aug-25 12:31 UTC. Time now 2016-Aug-25 13:11 UTC.
Position N 35°29' E 139°55'.

Length 68 m; draft 4.5 m.

MMSI: 431501835.

Date/timePositionNaut miles runAvg speedWind from/ knotsBaromVisibWave heightAir tempDewpointWater temp
2016-Aug-25 12:31N 35°29' E 139°55'2 2.0
2016-Aug-25 11:33N 35°29' E 139°53'1212.3
2016-Aug-25 10:33N 35°19' E 139°44'1212.0
2016-Aug-25 09:33N 35°06' E 139°46'  
2016-Aug-22 03:30N 34°37' E 135°01'16 4.0
2016-Aug-21 23:33N 34°23' E 135°09'0 0.0
2016-Aug-21 20:31N 34°23' E 135°09'0 0.0
2016-Aug-21 19:33N 34°23' E 135°09'0 0.0
2016-Aug-21 18:32N 34°23' E 135°09'0 0.0
2016-Aug-21 17:33N 34°23' E 135°09'0 0.0
2016-Aug-21 15:33N 34°23' E 135°09'0 0.0
2016-Aug-21 14:06N 34°23' E 135°09'0 0.0
2016-Aug-21 12:32N 34°23' E 135°09'0 0.0
2016-Aug-21 11:24N 34°23' E 135°09'0 0.0
2016-Aug-21 10:19N 34°23' E 135°09'0 0.1
2016-Aug-21 09:33N 34°23' E 135°09'0 0.0
2016-Aug-21 08:26N 34°23' E 135°09'0 0.1
2016-Aug-21 07:33N 34°23' E 135°09'0 0.0
2016-Aug-21 06:33N 34°23' E 135°09'0 0.0
2016-Aug-21 05:33N 34°23' E 135°09'0 0.0
2016-Aug-21 04:33N 34°23' E 135°09'0 0.0
2016-Aug-21 03:33N 34°23' E 135°09'0 0.0
2016-Aug-21 02:30N 34°23' E 135°09'0 0.0
2016-Aug-21 01:33N 34°23' E 135°09'0 0.0
2016-Aug-20 23:11N 34°23' E 135°09'0 0.0
2016-Aug-20 21:17N 34°23' E 135°09'0 0.0
2016-Aug-20 20:33N 34°23' E 135°09'0 0.0
2016-Aug-20 19:33N 34°23' E 135°09'0 0.0
2016-Aug-20 18:24N 34°23' E 135°09'0 0.0
2016-Aug-20 15:32N 34°23' E 135°09'0 0.0
2016-Aug-20 14:28N 34°23' E 135°09'0 0.0
2016-Aug-20 11:33N 34°23' E 135°09'0 0.0
2016-Aug-20 10:27N 34°23' E 135°09'0 0.0
2016-Aug-20 09:22N 34°23' E 135°09'0 0.0
2016-Aug-20 08:31N 34°23' E 135°09'0 0.0
2016-Aug-20 07:20N 34°23' E 135°09'0 0.0
2016-Aug-20 06:33N 34°23' E 135°09'0 0.0
2016-Aug-20 05:33N 34°23' E 135°09'0 0.0
2016-Aug-20 03:08N 34°23' E 135°09'0 0.0
2016-Aug-20 01:33N 34°23' E 135°09'0 0.0
2016-Aug-20 00:32N 34°23' E 135°09'0 0.0
2016-Aug-19 23:23N 34°23' E 135°09'0 0.0
2016-Aug-19 22:33N 34°23' E 135°09'0 0.0
2016-Aug-19 21:32N 34°23' E 135°09'0 0.0
2016-Aug-19 20:25N 34°23' E 135°09'4 3.7
2016-Aug-19 19:24N 34°26' E 135°07'1214.3
2016-Aug-19 18:33N 34°37' E 135°01'  
2016-Aug-17 08:03N 35°13' E 139°46'611.5
2016-Aug-17 07:32N 35°19' E 139°43'10 9.9
2016-Aug-17 06:34N 35°28' E 139°48'8 3.3
2016-Aug-17 04:11N 35°33' E 139°55'0 0.0
2016-Aug-17 03:33N 35°33' E 139°55'0 0.0
2016-Aug-17 02:32N 35°33' E 139°55'0 0.0
2016-Aug-17 01:33N 35°33' E 139°55'0 0.0
2016-Aug-17 00:33N 35°33' E 139°55'0 0.0
2016-Aug-16 23:33N 35°33' E 139°55'0 0.0
2016-Aug-16 22:32N 35°33' E 139°55'0 0.1
2016-Aug-16 21:28N 35°33' E 139°55'0 0.0
2016-Aug-16 20:29N 35°33' E 139°55'0 0.0
2016-Aug-16 19:31N 35°33' E 139°55'0 0.0
2016-Aug-16 18:33N 35°33' E 139°55'0 0.0
2016-Aug-16 17:33N 35°33' E 139°55'0 0.0
2016-Aug-16 16:32N 35°33' E 139°55'0 0.1
2016-Aug-16 15:34N 35°33' E 139°55'0 0.0
2016-Aug-16 14:33N 35°33' E 139°55'0 0.0
2016-Aug-16 13:31N 35°33' E 139°55'0 0.0
2016-Aug-16 12:32N 35°33' E 139°55'0 0.0
2016-Aug-16 11:32N 35°33' E 139°55'0 0.0
2016-Aug-16 10:33N 35°33' E 139°55'0 0.0
2016-Aug-16 09:32N 35°33' E 139°55'0 0.0
2016-Aug-16 08:33N 35°33' E 139°55'0 0.0
2016-Aug-16 07:33N 35°33' E 139°55'0 0.0
2016-Aug-16 06:33N 35°33' E 139°55'0 0.0
2016-Aug-16 04:33N 35°33' E 139°55'0 0.0
2016-Aug-16 03:33N 35°33' E 139°55'7 7.0
2016-Aug-16 02:33N 35°31' E 140°02'0 0.0
2016-Aug-16 01:33N 35°31' E 140°02'0 0.0
2016-Aug-16 00:33N 35°31' E 140°02'0 0.0
2016-Aug-15 23:33N 35°31' E 140°02'6 6.2
2016-Aug-15 22:33N 35°29' E 139°55'0 0.5
2016-Aug-15 21:34N 35°28' E 139°55'0 0.0
2016-Aug-15 20:33N 35°28' E 139°55'0 0.0
2016-Aug-15 19:33N 35°28' E 139°55'0 0.0
2016-Aug-15 18:33N 35°28' E 139°55'0 0.0
2016-Aug-15 17:33N 35°28' E 139°55'0 0.1
2016-Aug-15 16:34N 35°28' E 139°55'0 0.0
2016-Aug-15 15:33N 35°28' E 139°55'0 0.0
2016-Aug-15 14:34N 35°28' E 139°55'0 0.0
2016-Aug-15 13:33N 35°28' E 139°55'0 0.0
2016-Aug-15 12:33N 35°28' E 139°55'  

Dump ship's entire track history